sensor_id;sensor_type;location;lat;lon;timestamp;P1;durP1;ratioP1;P2;durP2;ratioP2
13764;SDS011;6953;48.810;9.204;2022-07-22T00:01:12;0.40;;;0.40;;
13764;SDS011;6953;48.810;9.204;2022-07-22T00:03:37;0.40;;;0.40;;
13764;SDS011;6953;48.810;9.204;2022-07-22T00:06:02;0.40;;;0.40;;
13764;SDS011;6953;48.810;9.204;2022-07-22T00:08:28;0.40;;;0.40;;
13764;SDS011;6953;48.810;9.204;2022-07-22T00:10:53;0.40;;;0.40;;
13764;SDS011;6953;48.810;9.204;2022-07-22T00:13:19;0.40;;;0.40;;
13764;SDS011;6953;48.810;9.204;2022-07-22T00:15:44;0.40;;;0.40;;
13764;SDS011;6953;48.810;9.204;2022-07-22T00:18:09;0.40;;;0.40;;
13764;SDS011;6953;48.810;9.204;2022-07-22T00:20:35;0.50;;;0.50;;
13764;SDS011;6953;48.810;9.204;2022-07-22T00:23:00;0.50;;;0.50;;
13764;SDS011;6953;48.810;9.204;2022-07-22T00:25:26;0.50;;;0.50;;
13764;SDS011;6953;48.810;9.204;2022-07-22T00:27:53;0.45;;;0.45;;
13764;SDS011;6953;48.810;9.204;2022-07-22T00:30:18;0.40;;;0.40;;
13764;SDS011;6953;48.810;9.204;2022-07-22T00:32:43;0.40;;;0.40;;
13764;SDS011;6953;48.810;9.204;2022-07-22T00:35:09;0.50;;;0.50;;
13764;SDS011;6953;48.810;9.204;2022-07-22T00:37:34;0.47;;;0.47;;
13764;SDS011;6953;48.810;9.204;2022-07-22T00:39:59;0.50;;;0.50;;
13764;SDS011;6953;48.810;9.204;2022-07-22T00:42:25;0.40;;;0.40;;
13764;SDS011;6953;48.810;9.204;2022-07-22T00:44:50;0.50;;;0.50;;
13764;SDS011;6953;48.810;9.204;2022-07-22T00:47:15;0.50;;;0.50;;
13764;SDS011;6953;48.810;9.204;2022-07-22T00:49:41;0.50;;;0.50;;
13764;SDS011;6953;48.810;9.204;2022-07-22T00:52:06;0.40;;;0.40;;
13764;SDS011;6953;48.810;9.204;2022-07-22T00:54:32;0.50;;;0.50;;
13764;SDS011;6953;48.810;9.204;2022-07-22T00:56:58;0.50;;;0.50;;
13764;SDS011;6953;48.810;9.204;2022-07-22T00:59:24;0.43;;;0.43;;
13764;SDS011;6953;48.810;9.204;2022-07-22T01:01:50;0.40;;;0.40;;
13764;SDS011;6953;48.810;9.204;2022-07-22T01:04:16;0.40;;;0.40;;
13764;SDS011;6953;48.810;9.204;2022-07-22T01:06:42;0.40;;;0.40;;
13764;SDS011;6953;48.810;9.204;2022-07-22T01:09:11;0.40;;;0.40;;
13764;SDS011;6953;48.810;9.204;2022-07-22T01:11:38;0.40;;;0.40;;
13764;SDS011;6953;48.810;9.204;2022-07-22T01:14:05;0.47;;;0.47;;
13764;SDS011;6953;48.810;9.204;2022-07-22T01:16:30;0.40;;;0.40;;
13764;SDS011;6953;48.810;9.204;2022-07-22T01:18:56;0.30;;;0.30;;
13764;SDS011;6953;48.810;9.204;2022-07-22T01:21:22;0.40;;;0.40;;
13764;SDS011;6953;48.810;9.204;2022-07-22T01:23:47;0.40;;;0.40;;
13764;SDS011;6953;48.810;9.204;2022-07-22T01:26:13;0.38;;;0.38;;
13764;SDS011;6953;48.810;9.204;2022-07-22T01:28:39;0.40;;;0.40;;
13764;SDS011;6953;48.810;9.204;2022-07-22T01:31:05;0.40;;;0.40;;
13764;SDS011;6953;48.810;9.204;2022-07-22T01:33:31;0.40;;;0.40;;
13764;SDS011;6953;48.810;9.204;2022-07-22T01:35:57;0.30;;;0.30;;
13764;SDS011;6953;48.810;9.204;2022-07-22T01:38:22;0.40;;;0.40;;
13764;SDS011;6953;48.810;9.204;2022-07-22T01:40:48;0.40;;;0.40;;
13764;SDS011;6953;48.810;9.204;2022-07-22T01:43:14;0.40;;;0.40;;
13764;SDS011;6953;48.810;9.204;2022-07-22T01:45:43;0.40;;;0.40;;
13764;SDS011;6953;48.810;9.204;2022-07-22T01:48:09;0.30;;;0.30;;
13764;SDS011;6953;48.810;9.204;2022-07-22T01:50:35;0.30;;;0.30;;
13764;SDS011;6953;48.810;9.204;2022-07-22T01:53:01;0.30;;;0.30;;
13764;SDS011;6953;48.810;9.204;2022-07-22T01:55:26;0.40;;;0.40;;
13764;SDS011;6953;48.810;9.204;2022-07-22T01:57:52;0.40;;;0.40;;
13764;SDS011;6953;48.810;9.204;2022-07-22T02:00:17;0.40;;;0.40;;
13764;SDS011;6953;48.810;9.204;2022-07-22T02:02:42;0.50;;;0.50;;
13764;SDS011;6953;48.810;9.204;2022-07-22T02:05:08;0.30;;;0.30;;
13764;SDS011;6953;48.810;9.204;2022-07-22T02:07:34;0.40;;;0.40;;
13764;SDS011;6953;48.810;9.204;2022-07-22T02:09:59;0.40;;;0.40;;
13764;SDS011;6953;48.810;9.204;2022-07-22T02:12:25;0.47;;;0.47;;
13764;SDS011;6953;48.810;9.204;2022-07-22T02:14:51;0.40;;;0.40;;
13764;SDS011;6953;48.810;9.204;2022-07-22T02:17:16;0.40;;;0.40;;
13764;SDS011;6953;48.810;9.204;2022-07-22T02:19:41;0.40;;;0.40;;
13764;SDS011;6953;48.810;9.204;2022-07-22T02:22:08;0.40;;;0.40;;
13764;SDS011;6953;48.810;9.204;2022-07-22T02:24:33;0.40;;;0.40;;
13764;SDS011;6953;48.810;9.204;2022-07-22T02:26:59;0.40;;;0.40;;
13764;SDS011;6953;48.810;9.204;2022-07-22T02:29:25;0.38;;;0.38;;
13764;SDS011;6953;48.810;9.204;2022-07-22T02:31:51;0.50;;;0.50;;
13764;SDS011;6953;48.810;9.204;2022-07-22T02:34:17;0.50;;;0.50;;
13764;SDS011;6953;48.810;9.204;2022-07-22T02:36:42;0.50;;;0.50;;
13764;SDS011;6953;48.810;9.204;2022-07-22T02:39:08;0.50;;;0.50;;
13764;SDS011;6953;48.810;9.204;2022-07-22T02:41:33;0.50;;;0.50;;
13764;SDS011;6953;48.810;9.204;2022-07-22T02:43:58;0.40;;;0.40;;
13764;SDS011;6953;48.810;9.204;2022-07-22T02:46:24;0.50;;;0.50;;
13764;SDS011;6953;48.810;9.204;2022-07-22T02:48:50;0.50;;;0.50;;
13764;SDS011;6953;48.810;9.204;2022-07-22T02:51:16;0.40;;;0.40;;
13764;SDS011;6953;48.810;9.204;2022-07-22T02:53:41;0.40;;;0.40;;
13764;SDS011;6953;48.810;9.204;2022-07-22T02:56:06;0.50;;;0.50;;
13764;SDS011;6953;48.810;9.204;2022-07-22T02:58:33;0.40;;;0.40;;
13764;SDS011;6953;48.810;9.204;2022-07-22T03:00:58;0.50;;;0.50;;
13764;SDS011;6953;48.810;9.204;2022-07-22T03:03:23;0.50;;;0.50;;
13764;SDS011;6953;48.810;9.204;2022-07-22T03:05:49;0.50;;;0.50;;
13764;SDS011;6953;48.810;9.204;2022-07-22T03:08:14;0.50;;;0.50;;
13764;SDS011;6953;48.810;9.204;2022-07-22T03:10:40;0.40;;;0.40;;
13764;SDS011;6953;48.810;9.204;2022-07-22T03:13:05;0.40;;;0.40;;
13764;SDS011;6953;48.810;9.204;2022-07-22T03:15:30;0.38;;;0.38;;
13764;SDS011;6953;48.810;9.204;2022-07-22T03:17:56;0.30;;;0.30;;
13764;SDS011;6953;48.810;9.204;2022-07-22T03:20:21;0.30;;;0.30;;
13764;SDS011;6953;48.810;9.204;2022-07-22T03:22:46;0.30;;;0.30;;
13764;SDS011;6953;48.810;9.204;2022-07-22T03:25:12;0.20;;;0.20;;
13764;SDS011;6953;48.810;9.204;2022-07-22T03:27:37;0.30;;;0.30;;
13764;SDS011;6953;48.810;9.204;2022-07-22T03:30:03;0.28;;;0.28;;
13764;SDS011;6953;48.810;9.204;2022-07-22T03:32:30;0.30;;;0.30;;
13764;SDS011;6953;48.810;9.204;2022-07-22T03:34:55;0.30;;;0.30;;
13764;SDS011;6953;48.810;9.204;2022-07-22T03:37:20;0.20;;;0.20;;
13764;SDS011;6953;48.810;9.204;2022-07-22T03:39:46;0.30;;;0.30;;
13764;SDS011;6953;48.810;9.204;2022-07-22T03:42:11;0.20;;;0.20;;
13764;SDS011;6953;48.810;9.204;2022-07-22T03:44:36;0.30;;;0.30;;
13764;SDS011;6953;48.810;9.204;2022-07-22T03:47:01;0.30;;;0.30;;
13764;SDS011;6953;48.810;9.204;2022-07-22T03:49:27;0.30;;;0.30;;
13764;SDS011;6953;48.810;9.204;2022-07-22T03:51:54;0.30;;;0.30;;
13764;SDS011;6953;48.810;9.204;2022-07-22T03:54:20;0.30;;;0.30;;
13764;SDS011;6953;48.810;9.204;2022-07-22T03:56:46;0.20;;;0.20;;
13764;SDS011;6953;48.810;9.204;2022-07-22T03:59:11;0.30;;;0.30;;
13764;SDS011;6953;48.810;9.204;2022-07-22T04:01:36;0.30;;;0.30;;
13764;SDS011;6953;48.810;9.204;2022-07-22T04:04:02;0.20;;;0.20;;
13764;SDS011;6953;48.810;9.204;2022-07-22T04:06:27;0.22;;;0.22;;
13764;SDS011;6953;48.810;9.204;2022-07-22T04:08:52;0.25;;;0.25;;
13764;SDS011;6953;48.810;9.204;2022-07-22T04:11:19;0.20;;;0.20;;
13764;SDS011;6953;48.810;9.204;2022-07-22T04:13:45;0.20;;;0.20;;
13764;SDS011;6953;48.810;9.204;2022-07-22T04:16:10;0.30;;;0.30;;
13764;SDS011;6953;48.810;9.204;2022-07-22T04:18:36;0.30;;;0.30;;
13764;SDS011;6953;48.810;9.204;2022-07-22T04:21:01;0.30;;;0.30;;
13764;SDS011;6953;48.810;9.204;2022-07-22T04:23:27;0.20;;;0.20;;
13764;SDS011;6953;48.810;9.204;2022-07-22T04:25:52;0.20;;;0.20;;
13764;SDS011;6953;48.810;9.204;2022-07-22T04:28:17;0.25;;;0.25;;
13764;SDS011;6953;48.810;9.204;2022-07-22T04:30:43;0.20;;;0.20;;
13764;SDS011;6953;48.810;9.204;2022-07-22T04:33:09;0.20;;;0.20;;
13764;SDS011;6953;48.810;9.204;2022-07-22T04:35:34;0.20;;;0.20;;
13764;SDS011;6953;48.810;9.204;2022-07-22T04:37:59;0.20;;;0.20;;
13764;SDS011;6953;48.810;9.204;2022-07-22T04:40:25;0.20;;;0.20;;
13764;SDS011;6953;48.810;9.204;2022-07-22T04:42:51;0.20;;;0.20;;
13764;SDS011;6953;48.810;9.204;2022-07-22T04:45:16;0.20;;;0.20;;
13764;SDS011;6953;48.810;9.204;2022-07-22T04:47:41;0.20;;;0.20;;
13764;SDS011;6953;48.810;9.204;2022-07-22T04:50:07;0.20;;;0.20;;
13764;SDS011;6953;48.810;9.204;2022-07-22T04:52:33;0.20;;;0.20;;
13764;SDS011;6953;48.810;9.204;2022-07-22T04:54:58;0.20;;;0.20;;
13764;SDS011;6953;48.810;9.204;2022-07-22T04:57:24;0.20;;;0.20;;
13764;SDS011;6953;48.810;9.204;2022-07-22T04:59:50;0.10;;;0.10;;
13764;SDS011;6953;48.810;9.204;2022-07-22T05:02:16;0.10;;;0.10;;
13764;SDS011;6953;48.810;9.204;2022-07-22T05:04:41;0.10;;;0.10;;
13764;SDS011;6953;48.810;9.204;2022-07-22T05:07:07;0.10;;;0.10;;
13764;SDS011;6953;48.810;9.204;2022-07-22T05:09:32;0.10;;;0.10;;
13764;SDS011;6953;48.810;9.204;2022-07-22T05:11:57;0.10;;;0.10;;
13764;SDS011;6953;48.810;9.204;2022-07-22T05:14:23;0.10;;;0.10;;
13764;SDS011;6953;48.810;9.204;2022-07-22T05:16:48;0.10;;;0.10;;
13764;SDS011;6953;48.810;9.204;2022-07-22T05:19:13;0.30;;;0.30;;
13764;SDS011;6953;48.810;9.204;2022-07-22T05:21:39;0.30;;;0.30;;
13764;SDS011;6953;48.810;9.204;2022-07-22T05:24:04;0.30;;;0.30;;
13764;SDS011;6953;48.810;9.204;2022-07-22T05:26:30;0.20;;;0.20;;
13764;SDS011;6953;48.810;9.204;2022-07-22T05:28:57;0.28;;;0.28;;
13764;SDS011;6953;48.810;9.204;2022-07-22T05:31:22;0.20;;;0.20;;
13764;SDS011;6953;48.810;9.204;2022-07-22T05:33:48;0.20;;;0.20;;
13764;SDS011;6953;48.810;9.204;2022-07-22T05:36:14;0.20;;;0.20;;
13764;SDS011;6953;48.810;9.204;2022-07-22T05:38:39;0.17;;;0.17;;
13764;SDS011;6953;48.810;9.204;2022-07-22T05:41:05;0.20;;;0.20;;
13764;SDS011;6953;48.810;9.204;2022-07-22T05:43:30;0.20;;;0.20;;
13764;SDS011;6953;48.810;9.204;2022-07-22T05:45:55;0.20;;;0.20;;
13764;SDS011;6953;48.810;9.204;2022-07-22T05:48:21;0.15;;;0.15;;
13764;SDS011;6953;48.810;9.204;2022-07-22T05:50:46;0.20;;;0.20;;
13764;SDS011;6953;48.810;9.204;2022-07-22T05:53:12;0.20;;;0.20;;
13764;SDS011;6953;48.810;9.204;2022-07-22T05:55:37;0.20;;;0.20;;
13764;SDS011;6953;48.810;9.204;2022-07-22T05:58:02;0.20;;;0.20;;
13764;SDS011;6953;48.810;9.204;2022-07-22T06:00:28;0.20;;;0.20;;
13764;SDS011;6953;48.810;9.204;2022-07-22T06:02:53;0.17;;;0.17;;
13764;SDS011;6953;48.810;9.204;2022-07-22T06:05:19;0.10;;;0.10;;
13764;SDS011;6953;48.810;9.204;2022-07-22T06:07:45;0.10;;;0.10;;
13764;SDS011;6953;48.810;9.204;2022-07-22T06:10:10;0.00;;;0.00;;
13764;SDS011;6953;48.810;9.204;2022-07-22T06:12:36;0.00;;;0.00;;
13764;SDS011;6953;48.810;9.204;2022-07-22T06:15:02;0.00;;;0.00;;
13764;SDS011;6953;48.810;9.204;2022-07-22T06:17:28;0.00;;;0.00;;
13764;SDS011;6953;48.810;9.204;2022-07-22T06:19:53;0.00;;;0.00;;
13764;SDS011;6953;48.810;9.204;2022-07-22T06:22:18;0.00;;;0.00;;
13764;SDS011;6953;48.810;9.204;2022-07-22T06:24:44;0.10;;;0.10;;
13764;SDS011;6953;48.810;9.204;2022-07-22T06:27:10;0.10;;;0.10;;
13764;SDS011;6953;48.810;9.204;2022-07-22T06:29:36;0.00;;;0.00;;
13764;SDS011;6953;48.810;9.204;2022-07-22T06:32:01;0.10;;;0.10;;
13764;SDS011;6953;48.810;9.204;2022-07-22T06:34:27;0.00;;;0.00;;
13764;SDS011;6953;48.810;9.204;2022-07-22T06:36:53;0.00;;;0.00;;
13764;SDS011;6953;48.810;9.204;2022-07-22T06:39:19;0.00;;;0.00;;
13764;SDS011;6953;48.810;9.204;2022-07-22T06:41:44;0.05;;;0.05;;
13764;SDS011;6953;48.810;9.204;2022-07-22T06:44:10;0.05;;;0.05;;
13764;SDS011;6953;48.810;9.204;2022-07-22T06:46:35;0.00;;;0.00;;
13764;SDS011;6953;48.810;9.204;2022-07-22T06:49:00;0.00;;;0.00;;
13764;SDS011;6953;48.810;9.204;2022-07-22T06:51:26;0.10;;;0.10;;
13764;SDS011;6953;48.810;9.204;2022-07-22T06:53:52;0.10;;;0.10;;
13764;SDS011;6953;48.810;9.204;2022-07-22T06:56:17;0.10;;;0.10;;
13764;SDS011;6953;48.810;9.204;2022-07-22T06:58:42;0.03;;;0.03;;
13764;SDS011;6953;48.810;9.204;2022-07-22T07:01:08;0.00;;;0.00;;
13764;SDS011;6953;48.810;9.204;2022-07-22T07:03:33;0.10;;;0.10;;
13764;SDS011;6953;48.810;9.204;2022-07-22T07:05:59;0.10;;;0.10;;
13764;SDS011;6953;48.810;9.204;2022-07-22T07:08:24;0.10;;;0.10;;
13764;SDS011;6953;48.810;9.204;2022-07-22T07:10:49;0.10;;;0.10;;
13764;SDS011;6953;48.810;9.204;2022-07-22T07:13:15;0.10;;;0.10;;
13764;SDS011;6953;48.810;9.204;2022-07-22T07:15:40;0.10;;;0.10;;
13764;SDS011;6953;48.810;9.204;2022-07-22T07:18:05;0.10;;;0.10;;
13764;SDS011;6953;48.810;9.204;2022-07-22T07:20:31;0.00;;;0.00;;
13764;SDS011;6953;48.810;9.204;2022-07-22T07:22:59;0.10;;;0.10;;
13764;SDS011;6953;48.810;9.204;2022-07-22T07:25:25;0.10;;;0.10;;
13764;SDS011;6953;48.810;9.204;2022-07-22T07:27:51;0.10;;;0.10;;
13764;SDS011;6953;48.810;9.204;2022-07-22T07:30:16;0.10;;;0.10;;
13764;SDS011;6953;48.810;9.204;2022-07-22T07:32:42;0.10;;;0.10;;
13764;SDS011;6953;48.810;9.204;2022-07-22T07:35:07;0.00;;;0.00;;
13764;SDS011;6953;48.810;9.204;2022-07-22T07:37:33;0.10;;;0.10;;
13764;SDS011;6953;48.810;9.204;2022-07-22T07:39:59;0.00;;;0.00;;
13764;SDS011;6953;48.810;9.204;2022-07-22T07:42:24;0.00;;;0.00;;
13764;SDS011;6953;48.810;9.204;2022-07-22T07:44:50;0.00;;;0.00;;
13764;SDS011;6953;48.810;9.204;2022-07-22T07:47:16;0.10;;;0.10;;
13764;SDS011;6953;48.810;9.204;2022-07-22T07:49:44;0.10;;;0.10;;
13764;SDS011;6953;48.810;9.204;2022-07-22T07:52:10;0.00;;;0.00;;
13764;SDS011;6953;48.810;9.204;2022-07-22T07:54:37;0.10;;;0.10;;
13764;SDS011;6953;48.810;9.204;2022-07-22T07:57:04;0.00;;;0.00;;
13764;SDS011;6953;48.810;9.204;2022-07-22T07:59:30;0.10;;;0.10;;
13764;SDS011;6953;48.810;9.204;2022-07-22T08:01:56;0.00;;;0.00;;
13764;SDS011;6953;48.810;9.204;2022-07-22T08:04:21;0.10;;;0.10;;
13764;SDS011;6953;48.810;9.204;2022-07-22T08:06:46;0.10;;;0.10;;
13764;SDS011;6953;48.810;9.204;2022-07-22T08:09:12;0.10;;;0.10;;
13764;SDS011;6953;48.810;9.204;2022-07-22T08:11:37;0.10;;;0.10;;
13764;SDS011;6953;48.810;9.204;2022-07-22T08:14:02;0.00;;;0.00;;
13764;SDS011;6953;48.810;9.204;2022-07-22T08:16:28;0.10;;;0.10;;
13764;SDS011;6953;48.810;9.204;2022-07-22T08:18:53;0.05;;;0.05;;
13764;SDS011;6953;48.810;9.204;2022-07-22T08:21:18;0.10;;;0.10;;
13764;SDS011;6953;48.810;9.204;2022-07-22T08:23:44;0.08;;;0.08;;
13764;SDS011;6953;48.810;9.204;2022-07-22T08:26:09;0.00;;;0.00;;
13764;SDS011;6953;48.810;9.204;2022-07-22T08:28:34;0.00;;;0.00;;
13764;SDS011;6953;48.810;9.204;2022-07-22T08:31:00;0.00;;;0.00;;
13764;SDS011;6953;48.810;9.204;2022-07-22T08:33:25;0.10;;;0.10;;
13764;SDS011;6953;48.810;9.204;2022-07-22T08:35:51;0.10;;;0.10;;
13764;SDS011;6953;48.810;9.204;2022-07-22T08:38:16;0.10;;;0.10;;
13764;SDS011;6953;48.810;9.204;2022-07-22T08:40:41;0.00;;;0.00;;
13764;SDS011;6953;48.810;9.204;2022-07-22T08:43:07;0.08;;;0.08;;
13764;SDS011;6953;48.810;9.204;2022-07-22T08:45:32;0.10;;;0.10;;
13764;SDS011;6953;48.810;9.204;2022-07-22T08:47:58;0.10;;;0.10;;
13764;SDS011;6953;48.810;9.204;2022-07-22T08:50:24;0.05;;;0.05;;
13764;SDS011;6953;48.810;9.204;2022-07-22T08:52:50;0.00;;;0.00;;
13764;SDS011;6953;48.810;9.204;2022-07-22T08:55:15;0.00;;;0.00;;
13764;SDS011;6953;48.810;9.204;2022-07-22T08:57:47;0.10;;;0.10;;
13764;SDS011;6953;48.810;9.204;2022-07-22T09:00:15;0.00;;;0.00;;
13764;SDS011;6953;48.810;9.204;2022-07-22T09:02:43;0.10;;;0.10;;
13764;SDS011;6953;48.810;9.204;2022-07-22T09:05:09;0.10;;;0.10;;
13764;SDS011;6953;48.810;9.204;2022-07-22T09:07:37;0.10;;;0.10;;
13764;SDS011;6953;48.810;9.204;2022-07-22T09:10:05;0.10;;;0.10;;
13764;SDS011;6953;48.810;9.204;2022-07-22T09:12:33;0.00;;;0.00;;
13764;SDS011;6953;48.810;9.204;2022-07-22T09:14:59;0.03;;;0.03;;
13764;SDS011;6953;48.810;9.204;2022-07-22T09:17:36;0.00;;;0.00;;
13764;SDS011;6953;48.810;9.204;2022-07-22T09:20:04;0.05;;;0.05;;
13764;SDS011;6953;48.810;9.204;2022-07-22T09:22:40;0.10;;;0.10;;
13764;SDS011;6953;48.810;9.204;2022-07-22T09:25:18;0.00;;;0.00;;
13764;SDS011;6953;48.810;9.204;2022-07-22T09:27:47;0.10;;;0.10;;
13764;SDS011;6953;48.810;9.204;2022-07-22T09:30:15;0.10;;;0.10;;
13764;SDS011;6953;48.810;9.204;2022-07-22T09:32:43;0.00;;;0.00;;
13764;SDS011;6953;48.810;9.204;2022-07-22T09:35:09;0.10;;;0.10;;
13764;SDS011;6953;48.810;9.204;2022-07-22T09:37:48;0.03;;;0.03;;
13764;SDS011;6953;48.810;9.204;2022-07-22T09:40:14;0.00;;;0.00;;
13764;SDS011;6953;48.810;9.204;2022-07-22T09:42:45;0.10;;;0.10;;
13764;SDS011;6953;48.810;9.204;2022-07-22T09:45:16;0.03;;;0.03;;
13764;SDS011;6953;48.810;9.204;2022-07-22T09:47:42;0.00;;;0.00;;
13764;SDS011;6953;48.810;9.204;2022-07-22T09:50:32;0.10;;;0.10;;
13764;SDS011;6953;48.810;9.204;2022-07-22T09:52:56;0.10;;;0.10;;
13764;SDS011;6953;48.810;9.204;2022-07-22T09:55:24;0.10;;;0.10;;
13764;SDS011;6953;48.810;9.204;2022-07-22T09:57:51;0.00;;;0.00;;
13764;SDS011;6953;48.810;9.204;2022-07-22T10:00:19;0.10;;;0.10;;
13764;SDS011;6953;48.810;9.204;2022-07-22T10:02:59;0.10;;;0.10;;
13764;SDS011;6953;48.810;9.204;2022-07-22T10:05:27;0.03;;;0.03;;
13764;SDS011;6953;48.810;9.204;2022-07-22T10:07:55;0.10;;;0.10;;
13764;SDS011;6953;48.810;9.204;2022-07-22T10:10:23;0.05;;;0.05;;
13764;SDS011;6953;48.810;9.204;2022-07-22T10:12:50;0.10;;;0.10;;
13764;SDS011;6953;48.810;9.204;2022-07-22T10:15:17;0.00;;;0.00;;
13764;SDS011;6953;48.810;9.204;2022-07-22T10:17:44;0.00;;;0.00;;
13764;SDS011;6953;48.810;9.204;2022-07-22T10:20:13;0.00;;;0.00;;
13764;SDS011;6953;48.810;9.204;2022-07-22T10:25:08;0.00;;;0.00;;
13764;SDS011;6953;48.810;9.204;2022-07-22T10:35:32;0.00;;;0.00;;
13764;SDS011;6953;48.810;9.204;2022-07-22T10:38:01;0.00;;;0.00;;
13764;SDS011;6953;48.810;9.204;2022-07-22T10:40:30;0.00;;;0.00;;
13764;SDS011;6953;48.810;9.204;2022-07-22T10:43:10;0.00;;;0.00;;
13764;SDS011;6953;48.810;9.204;2022-07-22T10:48:10;0.00;;;0.00;;
13764;SDS011;6953;48.810;9.204;2022-07-22T10:50:41;0.00;;;0.00;;
13764;SDS011;6953;48.810;9.204;2022-07-22T10:53:09;0.00;;;0.00;;
13764;SDS011;6953;48.810;9.204;2022-07-22T10:55:58;0.00;;;0.00;;
13764;SDS011;6953;48.810;9.204;2022-07-22T11:01:03;0.00;;;0.00;;
13764;SDS011;6953;48.810;9.204;2022-07-22T11:03:35;0.00;;;0.00;;
13764;SDS011;6953;48.810;9.204;2022-07-22T11:06:14;0.00;;;0.00;;
13764;SDS011;6953;48.810;9.204;2022-07-22T11:08:40;0.00;;;0.00;;
13764;SDS011;6953;48.810;9.204;2022-07-22T11:11:07;0.00;;;0.00;;
13764;SDS011;6953;48.810;9.204;2022-07-22T11:13:38;0.00;;;0.00;;
13764;SDS011;6953;48.810;9.204;2022-07-22T11:18:43;0.00;;;0.00;;
13764;SDS011;6953;48.810;9.204;2022-07-22T11:21:10;0.00;;;0.00;;
13764;SDS011;6953;48.810;9.204;2022-07-22T11:23:38;0.00;;;0.00;;
13764;SDS011;6953;48.810;9.204;2022-07-22T11:26:05;0.00;;;0.00;;
13764;SDS011;6953;48.810;9.204;2022-07-22T11:28:31;0.00;;;0.00;;
13764;SDS011;6953;48.810;9.204;2022-07-22T11:31:06;0.00;;;0.00;;
13764;SDS011;6953;48.810;9.204;2022-07-22T11:33:33;0.00;;;0.00;;
13764;SDS011;6953;48.810;9.204;2022-07-22T11:36:06;0.00;;;0.00;;
13764;SDS011;6953;48.810;9.204;2022-07-22T11:38:48;0.00;;;0.00;;
13764;SDS011;6953;48.810;9.204;2022-07-22T11:41:18;0.00;;;0.00;;
13764;SDS011;6953;48.810;9.204;2022-07-22T11:46:14;0.00;;;0.00;;
13764;SDS011;6953;48.810;9.204;2022-07-22T11:48:42;0.00;;;0.00;;
13764;SDS011;6953;48.810;9.204;2022-07-22T11:51:08;0.00;;;0.00;;
13764;SDS011;6953;48.810;9.204;2022-07-22T11:53:35;0.00;;;0.00;;
13764;SDS011;6953;48.810;9.204;2022-07-22T11:56:02;0.00;;;0.00;;
13764;SDS011;6953;48.810;9.204;2022-07-22T12:01:12;0.00;;;0.00;;
13764;SDS011;6953;48.810;9.204;2022-07-22T12:03:40;0.00;;;0.00;;
13764;SDS011;6953;48.810;9.204;2022-07-22T12:06:09;0.00;;;0.00;;
13764;SDS011;6953;48.810;9.204;2022-07-22T12:08:42;0.00;;;0.00;;
13764;SDS011;6953;48.810;9.204;2022-07-22T12:11:11;0.00;;;0.00;;
13764;SDS011;6953;48.810;9.204;2022-07-22T12:13:40;0.00;;;0.00;;
13764;SDS011;6953;48.810;9.204;2022-07-22T12:16:17;0.00;;;0.00;;
13764;SDS011;6953;48.810;9.204;2022-07-22T12:18:54;0.00;;;0.00;;
13764;SDS011;6953;48.810;9.204;2022-07-22T12:21:21;0.00;;;0.00;;
13764;SDS011;6953;48.810;9.204;2022-07-22T12:23:59;0.00;;;0.00;;
13764;SDS011;6953;48.810;9.204;2022-07-22T12:32:03;0.00;;;0.00;;
13764;SDS011;6953;48.810;9.204;2022-07-22T12:37:13;0.00;;;0.00;;
13764;SDS011;6953;48.810;9.204;2022-07-22T12:39:51;0.00;;;0.00;;
13764;SDS011;6953;48.810;9.204;2022-07-22T12:42:17;0.00;;;0.00;;
13764;SDS011;6953;48.810;9.204;2022-07-22T12:50:17;0.00;;;0.00;;
13764;SDS011;6953;48.810;9.204;2022-07-22T12:52:57;0.00;;;0.00;;
13764;SDS011;6953;48.810;9.204;2022-07-22T12:55:23;0.00;;;0.00;;
13764;SDS011;6953;48.810;9.204;2022-07-22T12:57:49;0.00;;;0.00;;
13764;SDS011;6953;48.810;9.204;2022-07-22T13:00:15;0.00;;;0.00;;
13764;SDS011;6953;48.810;9.204;2022-07-22T13:03:00;0.00;;;0.00;;
13764;SDS011;6953;48.810;9.204;2022-07-22T13:05:26;0.00;;;0.00;;
13764;SDS011;6953;48.810;9.204;2022-07-22T13:07:52;0.00;;;0.00;;
13764;SDS011;6953;48.810;9.204;2022-07-22T13:10:18;0.00;;;0.00;;
13764;SDS011;6953;48.810;9.204;2022-07-22T13:12:45;0.00;;;0.00;;
13764;SDS011;6953;48.810;9.204;2022-07-22T13:15:10;0.00;;;0.00;;
13764;SDS011;6953;48.810;9.204;2022-07-22T13:17:36;0.00;;;0.00;;
13764;SDS011;6953;48.810;9.204;2022-07-22T13:20:02;0.00;;;0.00;;
13764;SDS011;6953;48.810;9.204;2022-07-22T13:22:29;0.00;;;0.00;;
13764;SDS011;6953;48.810;9.204;2022-07-22T13:24:55;0.00;;;0.00;;
13764;SDS011;6953;48.810;9.204;2022-07-22T13:27:20;0.00;;;0.00;;
13764;SDS011;6953;48.810;9.204;2022-07-22T13:29:46;0.00;;;0.00;;
13764;SDS011;6953;48.810;9.204;2022-07-22T13:32:11;0.00;;;0.00;;
13764;SDS011;6953;48.810;9.204;2022-07-22T13:34:36;0.00;;;0.00;;
13764;SDS011;6953;48.810;9.204;2022-07-22T13:37:02;0.00;;;0.00;;
13764;SDS011;6953;48.810;9.204;2022-07-22T13:39:27;0.00;;;0.00;;
13764;SDS011;6953;48.810;9.204;2022-07-22T13:41:53;0.00;;;0.00;;
13764;SDS011;6953;48.810;9.204;2022-07-22T13:44:18;0.00;;;0.00;;
13764;SDS011;6953;48.810;9.204;2022-07-22T13:46:44;0.00;;;0.00;;
13764;SDS011;6953;48.810;9.204;2022-07-22T13:49:10;0.00;;;0.00;;
13764;SDS011;6953;48.810;9.204;2022-07-22T13:51:36;0.00;;;0.00;;
13764;SDS011;6953;48.810;9.204;2022-07-22T13:54:01;0.00;;;0.00;;
13764;SDS011;6953;48.810;9.204;2022-07-22T13:56:26;0.00;;;0.00;;
13764;SDS011;6953;48.810;9.204;2022-07-22T13:58:52;0.10;;;0.10;;
13764;SDS011;6953;48.810;9.204;2022-07-22T14:01:17;0.00;;;0.00;;
13764;SDS011;6953;48.810;9.204;2022-07-22T14:03:43;0.00;;;0.00;;
13764;SDS011;6953;48.810;9.204;2022-07-22T14:06:09;0.00;;;0.00;;
13764;SDS011;6953;48.810;9.204;2022-07-22T14:08:35;0.00;;;0.00;;
13764;SDS011;6953;48.810;9.204;2022-07-22T14:11:01;0.00;;;0.00;;
13764;SDS011;6953;48.810;9.204;2022-07-22T14:13:27;0.00;;;0.00;;
13764;SDS011;6953;48.810;9.204;2022-07-22T14:15:53;0.00;;;0.00;;
13764;SDS011;6953;48.810;9.204;2022-07-22T14:18:19;0.00;;;0.00;;
13764;SDS011;6953;48.810;9.204;2022-07-22T14:20:44;0.00;;;0.00;;
13764;SDS011;6953;48.810;9.204;2022-07-22T14:23:10;0.00;;;0.00;;
13764;SDS011;6953;48.810;9.204;2022-07-22T14:25:39;0.00;;;0.00;;
13764;SDS011;6953;48.810;9.204;2022-07-22T14:28:05;0.00;;;0.00;;
13764;SDS011;6953;48.810;9.204;2022-07-22T14:30:31;0.00;;;0.00;;
13764;SDS011;6953;48.810;9.204;2022-07-22T14:32:57;0.00;;;0.00;;
13764;SDS011;6953;48.810;9.204;2022-07-22T14:35:22;0.00;;;0.00;;
13764;SDS011;6953;48.810;9.204;2022-07-22T14:37:48;0.00;;;0.00;;
13764;SDS011;6953;48.810;9.204;2022-07-22T14:40:13;0.00;;;0.00;;
13764;SDS011;6953;48.810;9.204;2022-07-22T14:42:39;0.00;;;0.00;;
13764;SDS011;6953;48.810;9.204;2022-07-22T14:45:05;0.00;;;0.00;;
13764;SDS011;6953;48.810;9.204;2022-07-22T14:47:34;0.00;;;0.00;;
13764;SDS011;6953;48.810;9.204;2022-07-22T14:50:01;0.00;;;0.00;;
13764;SDS011;6953;48.810;9.204;2022-07-22T14:52:26;0.00;;;0.00;;
13764;SDS011;6953;48.810;9.204;2022-07-22T14:54:51;0.00;;;0.00;;
13764;SDS011;6953;48.810;9.204;2022-07-22T14:57:16;0.00;;;0.00;;
13764;SDS011;6953;48.810;9.204;2022-07-22T14:59:42;0.00;;;0.00;;
13764;SDS011;6953;48.810;9.204;2022-07-22T15:02:07;0.10;;;0.10;;
13764;SDS011;6953;48.810;9.204;2022-07-22T15:04:33;0.00;;;0.00;;
13764;SDS011;6953;48.810;9.204;2022-07-22T15:06:58;0.00;;;0.00;;
13764;SDS011;6953;48.810;9.204;2022-07-22T15:09:23;0.00;;;0.00;;
13764;SDS011;6953;48.810;9.204;2022-07-22T15:11:49;0.00;;;0.00;;
13764;SDS011;6953;48.810;9.204;2022-07-22T15:14:15;0.00;;;0.00;;
13764;SDS011;6953;48.810;9.204;2022-07-22T15:16:40;0.00;;;0.00;;
13764;SDS011;6953;48.810;9.204;2022-07-22T15:19:05;0.00;;;0.00;;
13764;SDS011;6953;48.810;9.204;2022-07-22T15:21:31;0.00;;;0.00;;
13764;SDS011;6953;48.810;9.204;2022-07-22T15:23:57;0.00;;;0.00;;
13764;SDS011;6953;48.810;9.204;2022-07-22T15:26:23;0.00;;;0.00;;
13764;SDS011;6953;48.810;9.204;2022-07-22T15:28:48;0.00;;;0.00;;
13764;SDS011;6953;48.810;9.204;2022-07-22T15:31:15;0.00;;;0.00;;
13764;SDS011;6953;48.810;9.204;2022-07-22T15:33:41;0.00;;;0.00;;